Observation data for Snyder on 09/21/2020      Previous  Date  Next       Current Mesonet Observations  Soil Data  Daily Summary Page  Observations in Plain Language
KSYS 210500Z 09009KT 16/09 A3017 RMK A01 T01610090  RH  065%=      5-min Rain = 0
KSYS 210505Z 09008KT 16/09 A3017 RMK A01 T01600089  RH  065%=      5-min Rain = 0
KSYS 210510Z 09009KT 16/09 A3017 RMK A01 T01580089  RH  066%=      5-min Rain = 0
KSYS 210515Z 09009KT 16/09 A3017 RMK A01 T01570090  RH  066%=      5-min Rain = 0
KSYS 210520Z 09009KT 16/09 A3017 RMK A01 T01570090  RH  066%=      5-min Rain = 0
KSYS 210525Z 09009KT 16/09 A3017 RMK A01 T01560089  RH  066%=      5-min Rain = 0
KSYS 210530Z 09009KT 16/09 A3017 RMK A01 T01560089  RH  066%=      5-min Rain = 0
KSYS 210535Z 09009KT 16/09 A3017 RMK A01 T01560089  RH  066%=      5-min Rain = 0
KSYS 210540Z 09008KT 16/09 A3017 RMK A01 T01560089  RH  066%=      5-min Rain = 0
KSYS 210545Z 09009KT 16/09 A3017 RMK A01 T01570088  RH  065%=      5-min Rain = 0
KSYS 210550Z 09009KT 16/09 A3017 RMK A01 T01600088  RH  064%=      5-min Rain = 0
KSYS 210555Z 09009KT 16/09 A3017 RMK A01 T01600088  RH  064%=      5-min Rain = 0
KSYS 210600Z 09009KT 16/09 A3017 RMK A01 T01590088  RH  065%=      5-min Rain = 0
KSYS 210605Z 09009KT 16/09 A3017 RMK A01 T01570088  RH  065%=      5-min Rain = 0
KSYS 210610Z 09009KT 16/09 A3017 RMK A01 T01580088  RH  065%=      5-min Rain = 0
KSYS 210615Z 08009KT 16/09 A3017 RMK A01 T01560088  RH  066%=      5-min Rain = 0
KSYS 210620Z 09009KT 16/09 A3017 RMK A01 T01550087  RH  066%=      5-min Rain = 0
KSYS 210625Z 09009KT 16/09 A3017 RMK A01 T01550087  RH  066%=      5-min Rain = 0
KSYS 210630Z 09009KT 16/09 A3017 RMK A01 T01550088  RH  066%=      5-min Rain = 0
KSYS 210635Z 09009KT 15/09 A3017 RMK A01 T01540088  RH  067%=      5-min Rain = 0
KSYS 210640Z 09008KT 15/09 A3017 RMK A01 T01530088  RH  067%=      5-min Rain = 0
KSYS 210645Z 09008KT 15/09 A3017 RMK A01 T01510088  RH  068%=      5-min Rain = 0
KSYS 210650Z 09008KT 15/09 A3017 RMK A01 T01500088  RH  069%=      5-min Rain = 0
KSYS 210655Z 09008KT 15/09 A3018 RMK A01 T01480088  RH  069%=      5-min Rain = 0
KSYS 210700Z 09008KT 15/09 A3017 RMK A01 T01460088  RH  070%=      5-min Rain = 0
KSYS 210705Z 09008KT 14/09 A3017 RMK A01 T01440088  RH  071%=      5-min Rain = 0
KSYS 210710Z 09008KT 14/09 A3017 RMK A01 T01440088  RH  071%=      5-min Rain = 0
KSYS 210715Z 09008KT 15/09 A3017 RMK A01 T01450088  RH  071%=      5-min Rain = 0
KSYS 210720Z 09008KT 14/09 A3017 RMK A01 T01430088  RH  071%=      5-min Rain = 0
KSYS 210725Z 09008KT 14/09 A3017 RMK A01 T01410088  RH  072%=      5-min Rain = 0
KSYS 210730Z 09008KT 14/09 A3017 RMK A01 T01400088  RH  073%=      5-min Rain = 0
KSYS 210735Z 09008KT 14/09 A3017 RMK A01 T01380088  RH  074%=      5-min Rain = 0
KSYS 210740Z 09007KT 14/09 A3018 RMK A01 T01360088  RH  075%=      5-min Rain = 0
KSYS 210745Z 09007KT 13/09 A3017 RMK A01 T01340087  RH  076%=      5-min Rain = 0
KSYS 210750Z 09007KT 13/09 A3017 RMK A01 T01330088  RH  076%=      5-min Rain = 0
KSYS 210755Z 09006KT 14/09 A3017 RMK A01 T01350088  RH  076%=      5-min Rain = 0
KSYS 210800Z 10006KT 14/09 A3017 RMK A01 T01380088  RH  074%=      5-min Rain = 0
KSYS 210805Z 10006KT 14/09 A3017 RMK A01 T01400088  RH  073%=      5-min Rain = 0
KSYS 210810Z 10006KT 14/09 A3017 RMK A01 T01410088  RH  073%=      5-min Rain = 0
KSYS 210815Z 10006KT 14/09 A3017 RMK A01 T01420088  RH  072%=      5-min Rain = 0
KSYS 210820Z 10006KT 14/09 A3017 RMK A01 T01430088  RH  072%=      5-min Rain = 0
KSYS 210825Z 10006KT 14/09 A3017 RMK A01 T01430087  RH  071%=      5-min Rain = 0
KSYS 210830Z 10006KT 14/09 A3017 RMK A01 T01440087  RH  071%=      5-min Rain = 0
KSYS 210835Z 10006KT 15/09 A3017 RMK A01 T01450087  RH  070%=      5-min Rain = 0
KSYS 210840Z 10006KT 15/09 A3017 RMK A01 T01460086  RH  070%=      5-min Rain = 0
KSYS 210845Z 10005KT 15/09 A3017 RMK A01 T01470086  RH  069%=      5-min Rain = 0
KSYS 210850Z 10005KT 15/09 A3017 RMK A01 T01460086  RH  069%=      5-min Rain = 0
KSYS 210855Z 11005KT 15/09 A3017 RMK A01 T01470085  RH  069%=      5-min Rain = 0
KSYS 210900Z 11005KT 15/09 A3017 RMK A01 T01470085  RH  068%=      5-min Rain = 0
KSYS 210905Z 10005KT 15/09 A3017 RMK A01 T01490085  RH  068%=      5-min Rain = 0
KSYS 210910Z 10004KT 15/09 A3017 RMK A01 T01490085  RH  067%=      5-min Rain = 0
KSYS 210915Z 10004KT 15/09 A3017 RMK A01 T01500085  RH  067%=      5-min Rain = 0
KSYS 210920Z 10005KT 15/09 A3017 RMK A01 T01500085  RH  067%=      5-min Rain = 0
KSYS 210925Z 10005KT 15/09 A3016 RMK A01 T01500085  RH  067%=      5-min Rain = 0
KSYS 210930Z 10005KT 15/09 A3017 RMK A01 T01490086  RH  068%=      5-min Rain = 0
KSYS 210935Z 10005KT 15/09 A3017 RMK A01 T01500086  RH  068%=      5-min Rain = 0
KSYS 210940Z 10005KT 15/09 A3017 RMK A01 T01490085  RH  068%=      5-min Rain = 0
KSYS 210945Z 10005KT 15/09 A3016 RMK A01 T01490086  RH  068%=      5-min Rain = 0
KSYS 210950Z 10005KT 15/09 A3016 RMK A01 T01490086  RH  068%=      5-min Rain = 0
KSYS 210955Z 10005KT 15/09 A3017 RMK A01 T01490087  RH  068%=      5-min Rain = 0
KSYS 211000Z 10004KT 15/09 A3017 RMK A01 T01490087  RH  068%=      5-min Rain = 0
KSYS 211005Z 09005KT 15/09 A3017 RMK A01 T01470087  RH  069%=      5-min Rain = 0
KSYS 211010Z 09005KT 15/09 A3017 RMK A01 T01460087  RH  070%=      5-min Rain = 0
KSYS 211015Z 09004KT 14/09 A3017 RMK A01 T01440086  RH  071%=      5-min Rain = 0
KSYS 211020Z 08004KT 14/09 A3017 RMK A01 T01400086  RH  072%=      5-min Rain = 0
KSYS 211025Z 08004KT 14/09 A3017 RMK A01 T01390086  RH  073%=      5-min Rain = 0
KSYS 211030Z 07004KT 14/09 A3017 RMK A01 T01380087  RH  073%=      5-min Rain = 0
KSYS 211035Z 07005KT 14/09 A3017 RMK A01 T01390087  RH  073%=      5-min Rain = 0
KSYS 211040Z 06004KT 14/09 A3017 RMK A01 T01400087  RH  073%=      5-min Rain = 0
KSYS 211045Z 05004KT 14/09 A3017 RMK A01 T01380086  RH  073%=      5-min Rain = 0
KSYS 211050Z 03003KT 14/09 A3017 RMK A01 T01350086  RH  074%=      5-min Rain = 0
KSYS 211055Z 01003KT 13/08 A3017 RMK A01 T01310084  RH  075%=      5-min Rain = 0
KSYS 211100Z 01004KT 13/09 A3017 RMK A01 T01280085  RH  077%=      5-min Rain = 0
KSYS 211105Z 02005KT 13/09 A3017 RMK A01 T01250086  RH  079%=      5-min Rain = 0
KSYS 211110Z 02005KT 13/09 A3017 RMK A01 T01250086  RH  080%=      5-min Rain = 0
KSYS 211115Z 02005KT 13/09 A3017 RMK A01 T01260086  RH  079%=      5-min Rain = 0
KSYS 211120Z 02004KT 13/09 A3017 RMK A01 T01270087  RH  079%=      5-min Rain = 0
KSYS 211125Z 02004KT 13/09 A3017 RMK A01 T01280087  RH  079%=      5-min Rain = 0
KSYS 211130Z 03005KT 13/09 A3017 RMK A01 T01280087  RH  078%=      5-min Rain = 0
KSYS 211135Z 03005KT 13/09 A3017 RMK A01 T01280087  RH  079%=      5-min Rain = 0
KSYS 211140Z 03005KT 13/09 A3018 RMK A01 T01290087  RH  078%=      5-min Rain = 0
KSYS 211145Z 03006KT 13/09 A3018 RMK A01 T01300088  RH  078%=      5-min Rain = 0
KSYS 211150Z 03006KT 13/09 A3018 RMK A01 T01320088  RH  077%=      5-min Rain = 0
KSYS 211155Z 03006KT 13/09 A3018 RMK A01 T01340089  RH  076%=      5-min Rain = 0
KSYS 211200Z 03006KT 14/09 A3018 RMK A01 T01350089  RH  076%=      5-min Rain = 0
KSYS 211205Z 02005KT 13/09 A3018 RMK A01 T01340090  RH  077%=      5-min Rain = 0
KSYS 211210Z 02006KT 13/09 A3018 RMK A01 T01330090  RH  077%=      5-min Rain = 0
KSYS 211215Z 03006KT 13/09 A3018 RMK A01 T01330090  RH  077%=      5-min Rain = 0
KSYS 211220Z 04007KT 13/09 A3019 RMK A01 T01340091  RH  078%=      5-min Rain = 0
KSYS 211225Z 04007KT 14/09 A3019 RMK A01 T01380092  RH  076%=      5-min Rain = 0
KSYS 211230Z 03007KT 14/09 A3019 RMK A01 T01400092  RH  075%=      5-min Rain = 0
KSYS 211235Z 03007KT 14/09 A3019 RMK A01 T01410091  RH  074%=      5-min Rain = 0
KSYS 211240Z 03007KT 14/09 A3019 RMK A01 T01400092  RH  075%=      5-min Rain = 0
KSYS 211245Z 03006KT 14/09 A3019 RMK A01 T01390091  RH  075%=      5-min Rain = 0
KSYS 211250Z 03006KT 14/09 A3019 RMK A01 T01380091  RH  076%=      5-min Rain = 0
KSYS 211255Z 02006KT 14/09 A302 RMK A01 T01370091  RH  076%=      5-min Rain = 0
KSYS 211300Z 02006KT 14/09 A302 RMK A01 T01350092  RH  077%=      5-min Rain = 0
KSYS 211305Z 01006KT 13/09 A302 RMK A01 T01340092  RH  078%=      5-min Rain = 0
KSYS 211310Z 01005KT 13/09 A302 RMK A01 T01320092  RH  079%=      5-min Rain = 0
KSYS 211315Z 00005KT 13/09 A302 RMK A01 T01290092  RH  080%=      5-min Rain = 0
KSYS 211320Z 36004KT 13/09 A302 RMK A01 T01300093  RH  081%=      5-min Rain = 0
KSYS 211325Z 35004KT 13/10 A302 RMK A01 T01320095  RH  081%=      5-min Rain = 0
KSYS 211330Z 36003KT 14/10 A302 RMK A01 T01350097  RH  080%=      5-min Rain = 0
KSYS 211335Z 01004KT 14/10 A302 RMK A01 T01380097  RH  079%=      5-min Rain = 0
KSYS 211340Z 01004KT 14/10 A3021 RMK A01 T01420099  RH  078%=      5-min Rain = 0
KSYS 211345Z 02004KT 15/10 A3021 RMK A01 T01470101  RH  077%=      5-min Rain = 0
KSYS 211350Z 03004KT 15/10 A3021 RMK A01 T01530104  RH  075%=      5-min Rain = 0
KSYS 211355Z 02004KT 16/11 A3021 RMK A01 T01580105  RH  073%=      5-min Rain = 0
KSYS 211400Z 02003KT 16/11 A3021 RMK A01 T01620107  RH  072%=      5-min Rain = 0
KSYS 211405Z 03004KT 16/11 A3021 RMK A01 T01620106  RH  072%=      5-min Rain = 0
KSYS 211410Z 03004KT 16/11 A3021 RMK A01 T01630107  RH  072%=      5-min Rain = 0
KSYS 211415Z 02004KT 17/11 A3021 RMK A01 T01670109  RH  071%=      5-min Rain = 0
KSYS 211420Z 03003KT 17/11 A3021 RMK A01 T01700111  RH  071%=      5-min Rain = 0
KSYS 211425Z 04003KT 17/11 A3022 RMK A01 T01740114  RH  070%=      5-min Rain = 0
KSYS 211430Z 04003KT 18/12 A3022 RMK A01 T01790116  RH  069%=      5-min Rain = 0
KSYS 211435Z 05004KT 18/12 A3022 RMK A01 T01840122  RH  070%=      5-min Rain = 0
KSYS 211440Z 06004KT 19/13 A3022 RMK A01 T01900127  RH  070%=      5-min Rain = 0
KSYS 211445Z 07005KT 19/13 A3022 RMK A01 T01940130  RH  069%=      5-min Rain = 0
KSYS 211450Z 06004KT 19/13 A3022 RMK A01 T01900126  RH  069%=      5-min Rain = 0
KSYS 211455Z 07004KT 19/13 A3022 RMK A01 T01890126  RH  070%=      5-min Rain = 0
KSYS 211500Z 05004KT 20/13 A3022 RMK A01 T01950129  RH  068%=      5-min Rain = 0
KSYS 211505Z 05006KT 20/13 A3022 RMK A01 T02000129  RH  066%=      5-min Rain = 0
KSYS 211510Z 06005KT 20/13 A3022 RMK A01 T01970129  RH  068%=      5-min Rain = 0
KSYS 211515Z 04005KT 20/13 A3022 RMK A01 T02020131  RH  066%=      5-min Rain = 0
KSYS 211520Z 05006KT 20/13 A3022 RMK A01 T02020131  RH  066%=      5-min Rain = 0
KSYS 211525Z 05006KT 21/13 A3022 RMK A01 T02050133  RH  066%=      5-min Rain = 0
KSYS 211530Z 03007KT 21/13 A3022 RMK A01 T02070132  RH  065%=      5-min Rain = 0
KSYS 211535Z 05005KT 21/14 A3022 RMK A01 T02100137  RH  066%=      5-min Rain = 0
KSYS 211540Z 04006KT 21/14 A3022 RMK A01 T02130138  RH  065%=      5-min Rain = 0
KSYS 211545Z 06005KT 22/14 A3022 RMK A01 T02180141  RH  064%=      5-min Rain = 0
KSYS 211550Z 07004G10KT 22/14 A3022 RMK A01 T02230144  RH  064%=      5-min Rain = 0
KSYS 211555Z 07005KT 22/15 A3022 RMK A01 T02230145  RH  064%=      5-min Rain = 0
KSYS 211600Z 08005KT 22/15 A3022 RMK A01 T02240146  RH  064%=      5-min Rain = 0
KSYS 211605Z 06005KT 23/15 A3022 RMK A01 T02250145  RH  063%=      5-min Rain = 0
KSYS 211610Z 05005KT 23/15 A3022 RMK A01 T02270146  RH  063%=      5-min Rain = 0
KSYS 211615Z 07006KT 23/14 A3022 RMK A01 T02260144  RH  062%=      5-min Rain = 0
KSYS 211620Z 08006KT 23/15 A3022 RMK A01 T02270145  RH  063%=      5-min Rain = 0
KSYS 211625Z 08005KT 23/15 A3022 RMK A01 T02280146  RH  062%=      5-min Rain = 0
KSYS 211630Z 07005KT 23/15 A3022 RMK A01 T02300145  RH  061%=      5-min Rain = 0
KSYS 211635Z 08005KT 23/15 A3022 RMK A01 T02260145  RH  063%=      5-min Rain = 0
KSYS 211640Z 05003KT 23/15 A3021 RMK A01 T02280146  RH  063%=      5-min Rain = 0
KSYS 211645Z 06004KT 23/15 A3021 RMK A01 T02320147  RH  061%=      5-min Rain = 0
KSYS 211650Z 06004KT 23/15 A3021 RMK A01 T02290146  RH  062%=      5-min Rain = 0
KSYS 211655Z 06004KT 23/15 A3021 RMK A01 T02270146  RH  063%=      5-min Rain = 0
KSYS 211700Z 04005G10KT 23/15 A302 RMK A01 T02300147  RH  062%=      5-min Rain = 0
KSYS 211705Z 05005KT 23/15 A302 RMK A01 T02290146  RH  062%=      5-min Rain = 0
KSYS 211710Z 06005KT 23/15 A302 RMK A01 T02320145  RH  061%=      5-min Rain = 0
KSYS 211715Z 10005KT 23/15 A302 RMK A01 T02310145  RH  061%=      5-min Rain = 0
KSYS 211720Z 07004KT 23/15 A302 RMK A01 T02320146  RH  061%=      5-min Rain = 0
KSYS 211725Z 08005G10KT 24/15 A302 RMK A01 T02360147  RH  060%=      5-min Rain = 0
KSYS 211730Z 08005KT 24/15 A302 RMK A01 T02390147  RH  059%=      5-min Rain = 0
KSYS 211735Z 09006KT 24/15 A302 RMK A01 T02360146  RH  059%=      5-min Rain = 0
KSYS 211740Z 06004KT 23/14 A302 RMK A01 T02330144  RH  060%=      5-min Rain = 0
KSYS 211745Z 07006KT 23/15 A302 RMK A01 T02310145  RH  061%=      5-min Rain = 0
KSYS 211750Z 06005KT 23/14 A302 RMK A01 T02300144  RH  061%=      5-min Rain = 0
KSYS 211755Z 08006KT 23/15 A3019 RMK A01 T02310147  RH  062%=      5-min Rain = 0
KSYS 211800Z 07006KT 23/15 A3019 RMK A01 T02340146  RH  060%=      5-min Rain = 0
KSYS 211805Z 07006KT 23/15 A3019 RMK A01 T02340146  RH  060%=      5-min Rain = 0
KSYS 211810Z 07006KT 24/15 A3019 RMK A01 T02350146  RH  060%=      5-min Rain = 0
KSYS 211815Z 08005KT 23/15 A3019 RMK A01 T02330146  RH  060%=      5-min Rain = 0
KSYS 211820Z 06005KT 23/15 A3018 RMK A01 T02340147  RH  060%=      5-min Rain = 0
KSYS 211825Z 08005KT 23/14 A3019 RMK A01 T02300143  RH  061%=      5-min Rain = 0
KSYS 211830Z 06005KT 23/15 A3018 RMK A01 T02310145  RH  061%=      5-min Rain = 0
KSYS 211835Z 06006KT 23/15 A3018 RMK A01 T02300146  RH  062%=      5-min Rain = 0
KSYS 211840Z 07006KT 23/15 A3018 RMK A01 T02330148  RH  061%=      5-min Rain = 0
KSYS 211845Z 08006KT 23/15 A3018 RMK A01 T02300147  RH  062%=      5-min Rain = 0
KSYS 211850Z 07006KT 23/15 A3018 RMK A01 T02330148  RH  061%=      5-min Rain = 0
KSYS 211855Z 06006KT 24/15 A3018 RMK A01 T02380149  RH  060%=      5-min Rain = 0
KSYS 211900Z 06006KT 25/15 A3017 RMK A01 T02450150  RH  058%=      5-min Rain = 0
KSYS 211905Z 06006KT 25/15 A3017 RMK A01 T02480151  RH  057%=      5-min Rain = 0
KSYS 211910Z 06007KT 25/15 A3017 RMK A01 T02490151  RH  057%=      5-min Rain = 0
KSYS 211915Z 08008KT 25/15 A3017 RMK A01 T02470145  RH  056%=      5-min Rain = 0
KSYS 211920Z 04006KT 24/14 A3016 RMK A01 T02410143  RH  057%=      5-min Rain = 0
KSYS 211925Z 04006KT 24/15 A3016 RMK A01 T02420148  RH  058%=      5-min Rain = 0
KSYS 211930Z 05007G17KT 25/15 A3016 RMK A01 T02470148  RH  057%=      5-min Rain = 0
KSYS 211935Z 07006KT 25/15 A3015 RMK A01 T02510148  RH  055%=      5-min Rain = 0
KSYS 211940Z 07006KT 24/14 A3015 RMK A01 T02420142  RH  056%=      5-min Rain = 0
KSYS 211945Z 03007KT 24/14 A3015 RMK A01 T02400144  RH  058%=      5-min Rain = 0
KSYS 211950Z 04006KT 24/14 A3015 RMK A01 T02370142  RH  058%=      5-min Rain = 0
KSYS 211955Z 04006KT 24/15 A3015 RMK A01 T02420145  RH  057%=      5-min Rain = 0
KSYS 212000Z 06006KT 25/15 A3015 RMK A01 T02490146  RH  055%=      5-min Rain = 0
KSYS 212005Z 08006G11KT 25/15 A3015 RMK A01 T02500146  RH  055%=      5-min Rain = 0
KSYS 212010Z 05007KT 25/15 A3014 RMK A01 T02500145  RH  055%=      5-min Rain = 0
KSYS 212015Z 08006KT 25/15 A3014 RMK A01 T02510148  RH  055%=      5-min Rain = 0
KSYS 212020Z 10008G15KT 26/15 A3014 RMK A01 T02620147  RH  051%=      5-min Rain = 0
KSYS 212025Z 10006KT 26/14 A3014 RMK A01 T02560143  RH  052%=      5-min Rain = 0
KSYS 212030Z 09009KT 26/14 A3013 RMK A01 T02570144  RH  052%=      5-min Rain = 0
KSYS 212035Z 07007G13KT 26/14 A3013 RMK A01 T02560142  RH  051%=      5-min Rain = 0
KSYS 212040Z 06008G13KT 26/14 A3013 RMK A01 T02580143  RH  051%=      5-min Rain = 0
KSYS 212045Z 06007G12KT 26/14 A3013 RMK A01 T02560142  RH  051%=      5-min Rain = 0
KSYS 212050Z 07010G15KT 26/15 A3013 RMK A01 T02560145  RH  052%=      5-min Rain = 0
KSYS 212055Z 07008G13KT 26/15 A3013 RMK A01 T02570146  RH  052%=      5-min Rain = 0
KSYS 212100Z 08008G13KT 26/15 A3013 RMK A01 T02610145  RH  051%=      5-min Rain = 0
KSYS 212105Z 07007KT 26/14 A3012 RMK A01 T02590143  RH  051%=      5-min Rain = 0
KSYS 212110Z 07008G13KT 26/14 A3012 RMK A01 T02580142  RH  051%=      5-min Rain = 0
KSYS 212115Z 06007KT 25/14 A3012 RMK A01 T02540137  RH  051%=      5-min Rain = 0
KSYS 212120Z 07007KT 25/14 A3012 RMK A01 T02540137  RH  050%=      5-min Rain = 0
KSYS 212125Z 07007G12KT 25/14 A3012 RMK A01 T02540140  RH  051%=      5-min Rain = 0
KSYS 212130Z 09008KT 26/14 A3012 RMK A01 T02560141  RH  051%=      5-min Rain = 0
KSYS 212135Z 08007KT 26/14 A3012 RMK A01 T02550139  RH  051%=      5-min Rain = 0
KSYS 212140Z 06007G12KT 25/14 A3012 RMK A01 T02530141  RH  052%=      5-min Rain = 0
KSYS 212145Z 08008G13KT 26/14 A3012 RMK A01 T02550143  RH  052%=      5-min Rain = 0
KSYS 212150Z 09009KT 26/14 A3011 RMK A01 T02550142  RH  052%=      5-min Rain = 0
KSYS 212155Z 07006KT 26/14 A3011 RMK A01 T02570143  RH  051%=      5-min Rain = 0
KSYS 212200Z 07007G13KT 26/14 A3011 RMK A01 T02570141  RH  051%=      5-min Rain = 0
KSYS 212205Z 07007G12KT 26/14 A3011 RMK A01 T02570140  RH  050%=      5-min Rain = 0
KSYS 212210Z 09009KT 25/14 A3011 RMK A01 T02540140  RH  051%=      5-min Rain = 0
KSYS 212215Z 07008KT 25/14 A3011 RMK A01 T02510139  RH  052%=      5-min Rain = 0
KSYS 212220Z 09008G14KT 26/14 A3011 RMK A01 T02550141  RH  051%=      5-min Rain = 0
KSYS 212225Z 09008KT 25/14 A3011 RMK A01 T02510138  RH  052%=      5-min Rain = 0
KSYS 212230Z 09008G13KT 25/14 A3011 RMK A01 T02510139  RH  052%=      5-min Rain = 0
KSYS 212235Z 11008G14KT 25/14 A3011 RMK A01 T02500137  RH  052%=      5-min Rain = 0
KSYS 212240Z 10008KT 25/14 A3011 RMK A01 T02480136  RH  052%=      5-min Rain = 0
KSYS 212245Z 07008KT 25/14 A3011 RMK A01 T02500136  RH  051%=      5-min Rain = 0
KSYS 212250Z 08007G12KT 25/14 A3011 RMK A01 T02500135  RH  051%=      5-min Rain = 0
KSYS 212255Z 08009KT 25/13 A3011 RMK A01 T02480134  RH  051%=      5-min Rain = 0
KSYS 212300Z 09006KT 25/14 A3011 RMK A01 T02490135  RH  051%=      5-min Rain = 0
KSYS 212305Z 09007KT 25/14 A3011 RMK A01 T02490135  RH  051%=      5-min Rain = 0
KSYS 212310Z 09008G15KT 25/13 A3011 RMK A01 T02470134  RH  051%=      5-min Rain = 0
KSYS 212315Z 09010KT 25/13 A3011 RMK A01 T02450132  RH  051%=      5-min Rain = 0
KSYS 212320Z 07007G12KT 24/13 A3011 RMK A01 T02430134  RH  053%=      5-min Rain = 0
KSYS 212325Z 08009KT 24/13 A3011 RMK A01 T02430134  RH  053%=      5-min Rain = 0
KSYS 212330Z 09008KT 24/13 A3011 RMK A01 T02420133  RH  053%=      5-min Rain = 0
KSYS 212335Z 10008KT 24/13 A3011 RMK A01 T02420133  RH  053%=      5-min Rain = 0
KSYS 212340Z 10008KT 24/13 A3012 RMK A01 T02390133  RH  053%=      5-min Rain = 0
KSYS 212345Z 10009KT 24/13 A3012 RMK A01 T02370134  RH  055%=      5-min Rain = 0
KSYS 212350Z 09009KT 23/13 A3012 RMK A01 T02340133  RH  055%=      5-min Rain = 0
KSYS 212355Z 10008KT 23/13 A3012 RMK A01 T02330131  RH  055%=      5-min Rain = 0
KSYS 220000Z 10006KT 23/13 A3012 RMK A01 T02310132  RH  056%=      5-min Rain = 0
KSYS 220005Z 08006KT 23/13 A3012 RMK A01 T02300134  RH  057%=      5-min Rain = 0
KSYS 220010Z 09008KT 23/13 A3012 RMK A01 T02270134  RH  058%=      5-min Rain = 0
KSYS 220015Z 09007KT 22/13 A3012 RMK A01 T02240133  RH  059%=      5-min Rain = 0
KSYS 220020Z 09008KT 22/13 A3012 RMK A01 T02220133  RH  059%=      5-min Rain = 0
KSYS 220025Z 10007KT 22/13 A3012 RMK A01 T02200133  RH  060%=      5-min Rain = 0
KSYS 220030Z 08006KT 22/13 A3012 RMK A01 T02170133  RH  061%=      5-min Rain = 0
KSYS 220035Z 09007KT 22/13 A3012 RMK A01 T02150133  RH  062%=      5-min Rain = 0
KSYS 220040Z 09006KT 21/13 A3012 RMK A01 T02120133  RH  063%=      5-min Rain = 0
KSYS 220045Z 09006KT 21/13 A3012 RMK A01 T02100132  RH  064%=      5-min Rain = 0
KSYS 220050Z 08006KT 21/13 A3012 RMK A01 T02080132  RH  064%=      5-min Rain = 0
KSYS 220055Z 08006KT 21/13 A3012 RMK A01 T02050133  RH  066%=      5-min Rain = 0
KSYS 220100Z 08006KT 20/13 A3012 RMK A01 T02030133  RH  066%=      5-min Rain = 0
KSYS 220105Z 08006KT 20/13 A3012 RMK A01 T02020133  RH  067%=      5-min Rain = 0
KSYS 220110Z 07005KT 20/13 A3012 RMK A01 T02020133  RH  067%=      5-min Rain = 0
KSYS 220115Z 07006KT 20/13 A3012 RMK A01 T02020133  RH  067%=      5-min Rain = 0
KSYS 220120Z 06006KT 20/13 A3012 RMK A01 T02010134  RH  068%=      5-min Rain = 0
KSYS 220125Z 06006KT 20/13 A3012 RMK A01 T02000134  RH  068%=      5-min Rain = 0
KSYS 220130Z 06006KT 20/13 A3012 RMK A01 T01990134  RH  069%=      5-min Rain = 0
KSYS 220135Z 06006KT 20/13 A3012 RMK A01 T01990134  RH  069%=      5-min Rain = 0
KSYS 220140Z 06006KT 20/13 A3012 RMK A01 T01970134  RH  069%=      5-min Rain = 0
KSYS 220145Z 05006KT 20/13 A3012 RMK A01 T01970134  RH  070%=      5-min Rain = 0
KSYS 220150Z 05006KT 20/13 A3012 RMK A01 T01960133  RH  070%=      5-min Rain = 0
KSYS 220155Z 05006KT 20/13 A3013 RMK A01 T01950133  RH  070%=      5-min Rain = 0
KSYS 220200Z 04006KT 19/13 A3013 RMK A01 T01940133  RH  070%=      5-min Rain = 0
KSYS 220205Z 05006KT 19/13 A3013 RMK A01 T01940132  RH  070%=      5-min Rain = 0
KSYS 220210Z 05007KT 19/13 A3013 RMK A01 T01930132  RH  071%=      5-min Rain = 0
KSYS 220215Z 05007KT 19/13 A3013 RMK A01 T01930132  RH  071%=      5-min Rain = 0
KSYS 220220Z 05007KT 19/13 A3014 RMK A01 T01940133  RH  071%=      5-min Rain = 0
KSYS 220225Z 05007KT 19/13 A3014 RMK A01 T01930133  RH  071%=      5-min Rain = 0
KSYS 220230Z 05007KT 19/13 A3014 RMK A01 T01930133  RH  071%=      5-min Rain = 0
KSYS 220235Z 05007KT 19/13 A3014 RMK A01 T01920133  RH  071%=      5-min Rain = 0
KSYS 220240Z 05007KT 19/13 A3014 RMK A01 T01910133  RH  072%=      5-min Rain = 0
KSYS 220245Z 05007KT 19/13 A3014 RMK A01 T01900133  RH  072%=      5-min Rain = 0
KSYS 220250Z 05007KT 19/13 A3014 RMK A01 T01900133  RH  072%=      5-min Rain = 0
KSYS 220255Z 05006KT 19/13 A3014 RMK A01 T01900133  RH  072%=      5-min Rain = 0
KSYS 220300Z 04006KT 19/13 A3015 RMK A01 T01900133  RH  073%=      5-min Rain = 0
KSYS 220305Z 04006KT 19/13 A3015 RMK A01 T01900133  RH  073%=      5-min Rain = 0
KSYS 220310Z 04006KT 19/13 A3015 RMK A01 T01890133  RH  073%=      5-min Rain = 0
KSYS 220315Z 04006KT 19/13 A3015 RMK A01 T01890133  RH  073%=      5-min Rain = 0
KSYS 220320Z 04006KT 19/13 A3015 RMK A01 T01880133  RH  073%=      5-min Rain = 0
KSYS 220325Z 04006KT 19/13 A3015 RMK A01 T01880133  RH  073%=      5-min Rain = 0
KSYS 220330Z 04006KT 19/13 A3015 RMK A01 T01870133  RH  074%=      5-min Rain = 0
KSYS 220335Z 04007KT 19/13 A3015 RMK A01 T01870132  RH  074%=      5-min Rain = 0
KSYS 220340Z 04007KT 19/13 A3015 RMK A01 T01870132  RH  073%=      5-min Rain = 0
KSYS 220345Z 04007KT 19/13 A3015 RMK A01 T01870132  RH  073%=      5-min Rain = 0
KSYS 220350Z 04007KT 19/13 A3014 RMK A01 T01880132  RH  073%=      5-min Rain = 0
KSYS 220355Z 04007KT 19/13 A3014 RMK A01 T01880132  RH  073%=      5-min Rain = 0
KSYS 220400Z 04007KT 19/13 A3014 RMK A01 T01880132  RH  073%=      5-min Rain = 0
KSYS 220405Z 04007KT 19/13 A3014 RMK A01 T01870132  RH  073%=      5-min Rain = 0
KSYS 220410Z 04007KT 19/13 A3014 RMK A01 T01870132  RH  073%=      5-min Rain = 0
KSYS 220415Z 03007KT 19/13 A3015 RMK A01 T01860132  RH  074%=      5-min Rain = 0
KSYS 220420Z 03007KT 18/13 A3015 RMK A01 T01840132  RH  075%=      5-min Rain = 0
KSYS 220425Z 03007KT 18/13 A3015 RMK A01 T01830132  RH  075%=      5-min Rain = 0
KSYS 220430Z 03007KT 18/13 A3015 RMK A01 T01830132  RH  075%=      5-min Rain = 0
KSYS 220435Z 03007KT 18/13 A3015 RMK A01 T01820132  RH  075%=      5-min Rain = 0
KSYS 220440Z 03007KT 18/13 A3015 RMK A01 T01820132  RH  075%=      5-min Rain = 0
KSYS 220445Z 03007KT 18/13 A3015 RMK A01 T01820132  RH  075%=      5-min Rain = 0
KSYS 220450Z 03007KT 18/13 A3015 RMK A01 T01810132  RH  076%=      5-min Rain = 0
KSYS 220455Z 03007KT 18/13 A3015 RMK A01 T01810132  RH  076%=      5-min Rain = 0

Page generated in 0.0102 seconds.